Airfield :
LOGIN :

Register | Disclaimer

   EN    FR    IT 

 










Legend :    VFR   Marginal VFR   IFR   Intensive IFR   Very Intensive IFR
Visi :
Ceiling :
>= 8 km
>= 3000ft
5 to 8 km
1000 to 3000 ft
1500m to 5 km
500 to 1000 ft
800 to 1500m
200 to 500 ft
< 800m
< 200 ft
Symbols :   Thunderstorms  Fog  Heavy snow  Heavy precipitations  Wind > 20 kt
SIGMETs :     Misc.  Thunderstorms  Icing  Turbulence  Mountain Waves  Volcanic Ashes







- Airport Elevation : 44 ft
- IATA code : SOU
- Download approach charts


EGHI - Southampton

CURRENT METAR :
  • 230920Z 20010KT 160V230 9999 FEW016 SCT030 17/12 Q1012

EXPIRED METARs :
  • 230850Z 19008KT 150V220 9999 FEW018 16/12 Q1011
  • 230820Z 19005KT 120V220 9999 VCSH FEW018 SCT036 15/12 Q1011
  • 230750Z 10001KT 9999 VCSH FEW020 SCT036 15/13 Q1011
  • 230720Z VRB01KT 9999 FEW032 14/13 Q1011
  • 230650Z 08001KT 9999 FEW032 13/11 Q1011

TAF TAF EGHI
Valid from the 23 at 09:00 until the 23 at 18:00 UTC


230800Z 2309/2318 VRB03KT 9999 SCT025
BECMG 2309/2312 20010KT
TEMPO 2314/2318 9000 -RA
PROB40
TEMPO 2314/2318 18015G25KT RA BKN014
ATIS : +44 23 8062 7103
No reported NOTAMs for that airfield.



MET'MAP, your aeronautical weather chart ! - Copyright ORBIFLY December 2007 - Disclaimer

ORBIFLY MET'MAP TEAM :

Programming & Development : Alexandra Zaïnal
Concept & Development : Baudouin d'Aumeries
Co-Development & Prog : Marc-Olivier Méhu
Technical & hardware support : Manuel Goepfert

Contact : metmap@orbifly.com




SOURCES & CREDITS :

   NOAA